ASN logo
ASN Wikibase Occurrence # 228059
Last updated: 16 October 2020
This information is added by users of ASN. Neither ASN nor the Flight Safety Foundation are responsible for the completeness or correctness of this information. If you feel this information is incomplete or incorrect, you can submit corrected information.

Date:05-AUG-2019
Time:05:33 LT
Type:Silhouette image of generic B738 model; specific model in this crash may look slightly different
Boeing 737-8ZS (WL)
Owner/operator:S7 Airlines, opb Globus
Registration: VQ-BKV
C/n / msn: 37084
Fatalities:Fatalities: 0 / Occupants:
Other fatalities:0
Aircraft damage: Minor
Location:Moskva-Domodedovo Airport (DME/UUDD) -   Russia
Phase: Take off
Nature:Passenger - Scheduled
Departure airport:Moskva-Domodedovo Airport (DME/UUDD)
Destination airport:Simferopol Airport (SIP)
Narrative:
S7 Airlines flight 263 struck runway lights during a long takeoff from Moscow's Domodedovo Airport in Russia.
A video of the takeoff shows the aircraft rotating at the very end of the paved surface of runway 32L. Photos, purportedly of the aircraft's tires show slashes that would have been caused after striking some runway lights.

Flight tracking website Flightradar24 shows the aircraft performing an intersection take off from runway 32L.
The runway is 3500 meters long. The aircraft lined up at the intersection of taxiway A8, with about 2300 m of runway remaining.

Weather about the of the accident (02:33Z):
UUDD 050200Z 29003MPS CAVOK 06/04 Q1003 R32L/CLRD70 NOSIG
UUDD 050300Z 28003MPS 9999 FEW046 07/05 Q1003 R32L/CLRD70 NOSIG

Sources:

http://ren.tv/novosti/2019-08-08/kamera-snyala-kak-samolet-pri-vzlete-sbil-fonari-v-domodedovo?mren=1
https://www.flightradar24.com/data/aircraft/vq-bkv#2191e816

Media:


Images:


Revision history:

Date/timeContributorUpdates
09-Aug-2019 17:03 harro Added
09-Aug-2019 17:09 harro Updated [Location, Destination airport, Embed code, Narrative]
09-Aug-2019 17:13 harro Updated [Operator, Source, Embed code]
09-Aug-2019 17:14 harro Updated [Embed code]
09-Aug-2019 17:23 harro Updated [Photo]

Corrections or additions? ... Edit this accident description